createdAt,value
2019-02-12T00:02:25.225Z,6.30
2019-02-12T00:04:49.650Z,5.17
2019-02-12T00:07:14.124Z,7.27
2019-02-12T00:09:38.549Z,8.33
2019-02-12T00:12:03.008Z,7.07
2019-02-12T00:14:27.447Z,10.73
2019-02-12T00:16:51.844Z,5.67
2019-02-12T00:19:16.268Z,7.03
2019-02-12T00:21:40.674Z,7.23
2019-02-12T00:24:05.107Z,6.97
2019-02-12T00:26:29.509Z,4.83
2019-02-12T00:28:54.056Z,7.77
2019-02-12T00:31:18.476Z,5.40
2019-02-12T00:33:42.880Z,5.43
2019-02-12T00:36:07.322Z,7.57
2019-02-12T00:38:31.742Z,11.47
2019-02-12T00:40:56.175Z,6.67
2019-02-12T00:43:20.576Z,6.17
2019-02-12T00:45:45.007Z,4.17
2019-02-12T00:48:09.406Z,4.47
2019-02-12T00:50:33.848Z,11.97
2019-02-12T00:52:58.238Z,6.03
2019-02-12T00:55:22.631Z,4.30
2019-02-12T00:57:47.517Z,7.63
2019-02-12T01:00:14.474Z,7.27
2019-02-12T01:02:38.959Z,5.07
2019-02-12T01:05:04.433Z,6.87
2019-02-12T01:07:28.980Z,7.70
2019-02-12T01:09:53.395Z,6.63
2019-02-12T01:12:17.816Z,5.03
2019-02-12T01:14:42.222Z,5.90
2019-02-12T01:17:06.646Z,3.67
2019-02-12T01:19:31.053Z,4.67
2019-02-12T01:21:55.444Z,8.83
2019-02-12T01:24:19.867Z,7.67
2019-02-12T01:26:44.280Z,7.43
2019-02-12T01:29:08.700Z,8.77
2019-02-12T01:31:33.096Z,6.37
2019-02-12T01:33:57.521Z,8.93
2019-02-12T01:36:21.925Z,6.07
2019-02-12T01:38:46.490Z,9.57
2019-02-12T01:41:10.959Z,6.03
2019-02-12T01:43:35.381Z,5.57
2019-02-12T01:45:59.775Z,8.37
2019-02-12T01:48:24.217Z,7.17
2019-02-12T01:50:49.111Z,7.73
2019-02-12T01:53:13.530Z,5.23
2019-02-12T01:55:37.928Z,5.37
2019-02-12T01:58:02.354Z,7.37
2019-02-12T02:00:26.788Z,9.60
2019-02-12T02:02:51.187Z,7.70
2019-02-12T02:05:15.674Z,11.53
2019-02-12T02:07:40.070Z,7.07
2019-02-12T02:10:06.699Z,4.90
2019-02-12T02:12:31.101Z,6.93
2019-02-12T02:14:55.542Z,10.23
2019-02-12T02:17:19.946Z,11.37
2019-02-12T02:19:44.378Z,11.23
2019-02-12T02:22:08.812Z,11.20
2019-02-12T02:24:33.292Z,8.27
2019-02-12T02:26:57.694Z,5.43
2019-02-12T02:29:22.134Z,10.60
2019-02-12T02:31:46.541Z,5.63
2019-02-12T02:34:10.930Z,8.17
2019-02-12T02:36:35.349Z,7.93
2019-02-12T02:38:59.763Z,5.80
2019-02-12T02:41:24.184Z,9.90
2019-02-12T02:43:48.691Z,6.70
2019-02-12T02:46:13.148Z,4.77
2019-02-12T02:48:37.494Z,8.10
2019-02-12T02:51:01.919Z,6.63
2019-02-12T02:53:26.321Z,10.43
2019-02-12T02:55:50.747Z,8.13
2019-02-12T02:58:15.147Z,6.70
2019-02-12T03:00:39.638Z,12.13
2019-02-12T03:03:04.055Z,8.23
2019-02-12T03:05:28.481Z,5.50
2019-02-12T03:07:52.880Z,7.17
2019-02-12T03:10:17.275Z,7.97
2019-02-12T03:12:41.781Z,6.20
2019-02-12T03:15:08.620Z,7.87
2019-02-12T03:17:33.027Z,6.57
2019-02-12T03:19:57.437Z,6.40
2019-02-12T03:22:21.870Z,9.87
2019-02-12T03:24:46.271Z,5.37
2019-02-12T03:27:10.697Z,7.30
2019-02-12T03:29:35.095Z,6.20
2019-02-12T03:31:59.516Z,7.67
2019-02-12T03:34:23.942Z,10.00
2019-02-12T03:36:48.354Z,8.57
2019-02-12T03:39:12.778Z,4.30
2019-02-12T03:41:37.173Z,7.87
2019-02-12T03:44:01.595Z,7.97
2019-02-12T03:46:25.994Z,6.07
2019-02-12T03:48:50.422Z,4.63
2019-02-12T03:51:14.888Z,5.13
2019-02-12T03:53:39.309Z,6.57
2019-02-12T03:56:03.862Z,4.93
2019-02-12T03:58:28.378Z,8.77
2019-02-12T04:00:52.844Z,7.40
2019-02-12T04:03:17.410Z,2.00
2019-02-12T04:05:41.804Z,7.07
2019-02-12T04:08:06.560Z,4.50
2019-02-12T04:10:31.064Z,9.43
2019-02-12T04:12:55.636Z,3.63
2019-02-12T04:15:20.031Z,3.80
2019-02-12T04:17:44.424Z,4.73
2019-02-12T04:20:08.992Z,4.33
2019-02-12T04:22:33.387Z,4.93
2019-02-12T04:24:57.816Z,5.47
2019-02-12T04:27:22.221Z,3.53
2019-02-12T04:29:46.653Z,8.30
2019-02-12T04:32:11.057Z,4.17
2019-02-12T04:34:35.497Z,6.43
2019-02-12T04:36:59.893Z,7.93
2019-02-12T04:39:24.326Z,5.33
2019-02-12T04:41:48.726Z,4.13
2019-02-12T04:44:13.175Z,5.07
2019-02-12T04:46:37.565Z,7.80
2019-02-12T04:49:02.008Z,6.83
2019-02-12T04:51:26.397Z,4.60
2019-02-12T04:53:50.837Z,6.87
2019-02-12T04:56:15.259Z,7.90
2019-02-12T04:58:39.648Z,5.33
2019-02-12T05:01:04.147Z,7.20
2019-02-12T05:03:28.547Z,4.53
2019-02-12T05:05:52.962Z,1.93
2019-02-12T05:08:17.370Z,4.63
2019-02-12T05:10:56.717Z,4.73
2019-02-12T05:13:21.155Z,5.53
2019-02-12T05:15:45.545Z,2.60
2019-02-12T05:18:09.973Z,3.63
2019-02-12T05:20:34.366Z,4.23
2019-02-12T05:22:58.847Z,5.53
2019-02-12T05:25:23.304Z,7.03
2019-02-12T05:27:47.739Z,5.03
2019-02-12T05:30:15.646Z,6.30
2019-02-12T05:32:40.141Z,6.57
2019-02-12T05:35:05.287Z,3.93
2019-02-12T05:37:29.682Z,2.90
2019-02-12T05:39:54.111Z,2.73
2019-02-12T05:42:18.502Z,9.07
2019-02-12T05:44:42.948Z,6.13
2019-02-12T05:47:07.341Z,3.47
2019-02-12T05:49:31.752Z,7.63
2019-02-12T05:51:56.150Z,6.63
2019-02-12T05:54:20.581Z,9.43
2019-02-12T05:56:44.975Z,10.57
2019-02-12T05:59:09.422Z,6.80
2019-02-12T06:01:33.814Z,4.60
2019-02-12T06:03:58.267Z,7.43
2019-02-12T06:06:22.666Z,7.90
2019-02-12T06:08:47.108Z,4.67
2019-02-12T06:11:11.572Z,4.87
2019-02-12T06:13:36.007Z,6.30
2019-02-12T06:16:00.403Z,3.83
2019-02-12T06:18:24.824Z,6.03
2019-02-12T06:20:49.226Z,11.53
2019-02-12T06:23:13.655Z,5.17
2019-02-12T06:25:38.044Z,7.20
2019-02-12T06:28:02.443Z,3.23
2019-02-12T06:30:26.871Z,4.83
2019-02-12T06:32:51.269Z,7.93
2019-02-12T06:35:15.753Z,7.17
2019-02-12T06:37:40.145Z,3.77
2019-02-12T06:40:07.223Z,5.93
2019-02-12T06:42:31.675Z,6.03
2019-02-12T06:44:56.087Z,5.03
2019-02-12T06:47:20.529Z,6.30
2019-02-12T06:49:44.937Z,7.07
2019-02-12T06:52:09.351Z,5.50
2019-02-12T06:54:33.745Z,3.23
2019-02-12T06:56:58.174Z,6.07
2019-02-12T06:59:22.585Z,5.77
2019-02-12T07:01:47.011Z,8.73
2019-02-12T07:04:11.493Z,5.63
2019-02-12T07:07:07.518Z,6.00
2019-02-12T07:09:37.664Z,8.17
2019-02-12T07:12:37.968Z,7.07
2019-02-12T07:15:17.220Z,7.17
2019-02-12T07:17:50.232Z,6.40
2019-02-12T07:20:20.765Z,10.30
2019-02-12T07:22:56.295Z,6.60
2019-02-12T07:25:29.364Z,6.23
2019-02-12T07:28:14.782Z,8.30
2019-02-12T07:31:16.509Z,8.07
2019-02-12T07:33:49.539Z,6.80
2019-02-12T07:36:33.221Z,4.37
2019-02-12T07:39:04.142Z,6.03
2019-02-12T07:41:43.398Z,5.37
2019-02-12T07:44:28.731Z,4.53
2019-02-12T07:46:58.848Z,9.03
2019-02-12T07:49:47.166Z,7.03
2019-02-12T07:52:14.606Z,7.03
2019-02-12T07:55:02.527Z,7.60
2019-02-12T07:57:50.586Z,5.43
2019-02-12T08:00:20.819Z,7.23
2019-02-12T08:02:51.185Z,5.13
2019-02-12T08:05:18.650Z,6.73
2019-02-12T08:07:48.917Z,9.00
2019-02-12T08:10:22.503Z,8.50
2019-02-12T08:12:58.714Z,4.40
2019-02-12T08:15:48.592Z,9.43
2019-02-12T08:18:16.037Z,5.47
2019-02-12T08:20:55.281Z,7.80
2019-02-12T08:23:41.294Z,7.53
2019-02-12T08:26:21.794Z,7.50
2019-02-12T08:29:05.303Z,8.73
2019-02-12T08:31:49.042Z,11.13
2019-02-12T08:34:28.417Z,4.57
2019-02-12T08:37:04.356Z,5.63
2019-02-12T08:39:43.445Z,5.67
2019-02-12T08:42:31.498Z,10.43
2019-02-12T08:45:25.955Z,5.47
2019-02-12T08:48:08.244Z,6.70
2019-02-12T08:50:56.716Z,9.63
2019-02-12T08:53:30.121Z,8.47
2019-02-12T08:56:19.800Z,10.73
2019-02-12T08:58:49.817Z,7.83
2019-02-12T09:01:19.885Z,7.43
2019-02-12T09:04:05.089Z,5.97
2019-02-12T09:06:55.055Z,4.27
2019-02-12T09:09:53.948Z,5.07
2019-02-12T09:12:21.386Z,6.30
2019-02-12T09:14:51.532Z,9.63
2019-02-12T09:17:33.590Z,7.70
2019-02-12T09:20:01.053Z,8.07
2019-02-12T09:22:28.494Z,9.23
2019-02-12T09:25:08.057Z,11.93
2019-02-12T09:27:40.887Z,8.97
2019-02-12T09:30:29.337Z,8.90
2019-02-12T09:33:05.275Z,6.63
2019-02-12T09:35:32.771Z,5.77
2019-02-12T09:38:00.219Z,9.83
2019-02-12T09:40:36.455Z,6.03
2019-02-12T09:43:04.780Z,5.33
2019-02-12T09:45:59.049Z,9.13
2019-02-12T09:48:29.438Z,10.43
2019-02-12T09:51:09.037Z,11.33
2019-02-12T09:54:08.786Z,5.57
2019-02-12T09:56:59.070Z,5.50
2019-02-12T09:59:29.124Z,5.73
2019-02-12T10:02:05.240Z,8.17
2019-02-12T10:04:38.325Z,10.00
2019-02-12T10:07:17.448Z,6.57
2019-02-12T10:09:53.616Z,12.70
2019-02-12T10:12:26.697Z,10.60
2019-02-12T10:15:11.747Z,8.47
2019-02-12T10:17:42.129Z,8.83
2019-02-12T10:20:27.501Z,9.63
2019-02-12T10:23:29.740Z,7.30
2019-02-12T10:25:57.418Z,7.23
2019-02-12T10:28:48.747Z,9.37
2019-02-12T10:31:13.039Z,6.50
2019-02-12T10:33:37.600Z,5.47
2019-02-12T10:36:02.008Z,12.03
2019-02-12T10:38:26.485Z,10.27
2019-02-12T10:40:50.982Z,9.10
2019-02-12T10:43:15.390Z,9.17
2019-02-12T10:45:39.822Z,9.67
2019-02-12T10:48:04.203Z,5.83
2019-02-12T10:50:28.629Z,11.07
2019-02-12T10:52:53.031Z,11.07
2019-02-12T10:55:17.465Z,7.70
2019-02-12T10:57:41.867Z,11.63
2019-02-12T11:00:14.002Z,11.53
2019-02-12T11:02:38.400Z,11.77
2019-02-12T11:05:02.833Z,12.60
2019-02-12T11:07:27.241Z,9.93
2019-02-12T11:09:51.678Z,5.53
2019-02-12T11:12:16.097Z,9.70
2019-02-12T11:14:40.501Z,7.17
2019-02-12T11:17:05.009Z,8.40
2019-02-12T11:19:29.412Z,9.00
2019-02-12T11:21:53.830Z,7.47
2019-02-12T11:24:18.227Z,13.23
2019-02-12T11:26:42.672Z,10.47
2019-02-12T11:29:07.160Z,8.30
2019-02-12T11:31:31.583Z,11.00
2019-02-12T11:33:55.982Z,9.00
2019-02-12T11:36:20.440Z,7.40
2019-02-12T11:38:44.856Z,6.00
2019-02-12T11:41:09.349Z,9.47
2019-02-12T11:43:33.750Z,6.83
2019-02-12T11:45:58.156Z,7.17
2019-02-12T11:48:22.600Z,7.50
2019-02-12T11:50:47.002Z,8.90
2019-02-12T11:53:11.419Z,7.97
2019-02-12T11:55:35.833Z,5.60
2019-02-12T11:58:00.287Z,5.60
2019-02-12T12:00:26.404Z,4.10
2019-02-12T12:02:50.822Z,7.43
2019-02-12T12:05:15.231Z,8.63
2019-02-12T12:07:39.726Z,7.10
2019-02-12T12:10:05.764Z,6.93
2019-02-12T12:12:30.179Z,7.60
2019-02-12T12:14:54.592Z,8.10
2019-02-12T12:17:19.114Z,6.43
2019-02-12T12:19:43.509Z,7.77
2019-02-12T12:22:07.931Z,6.00
2019-02-12T12:24:32.359Z,4.50
2019-02-12T12:26:56.758Z,10.17
2019-02-12T12:29:21.181Z,8.10
2019-02-12T12:31:45.586Z,5.70
2019-02-12T12:34:10.002Z,3.63
2019-02-12T12:36:34.414Z,10.00
2019-02-12T12:38:58.852Z,4.60
2019-02-12T12:41:23.249Z,3.97
2019-02-12T12:43:47.683Z,3.43
2019-02-12T12:46:12.084Z,4.20
2019-02-12T12:48:36.506Z,5.00
2019-02-12T12:51:00.912Z,4.80
2019-02-12T12:53:25.356Z,4.83
2019-02-12T12:55:49.757Z,3.90
2019-02-12T12:58:14.157Z,7.50
2019-02-12T13:00:38.579Z,4.63
2019-02-12T13:03:02.999Z,5.70
2019-02-12T13:05:27.434Z,6.47
2019-02-12T13:07:51.848Z,7.57
2019-02-12T13:10:17.305Z,6.30
2019-02-12T13:12:41.774Z,6.80
2019-02-12T13:15:09.156Z,6.93
2019-02-12T13:17:33.555Z,7.20
2019-02-12T13:19:57.984Z,6.37
2019-02-12T13:22:22.388Z,5.33
2019-02-12T13:24:46.812Z,6.50
2019-02-12T13:27:11.209Z,5.00
2019-02-12T13:29:35.834Z,6.63
2019-02-12T13:32:00.253Z,4.67
2019-02-12T13:34:24.654Z,6.60
2019-02-12T13:36:49.083Z,4.30
2019-02-12T13:39:13.497Z,6.07
2019-02-12T13:41:37.997Z,6.17
2019-02-12T13:44:02.461Z,4.17
2019-02-12T13:46:26.909Z,5.63
2019-02-12T13:48:51.347Z,7.87
2019-02-12T13:51:15.836Z,5.00
2019-02-12T13:53:40.234Z,7.00
2019-02-12T13:56:04.724Z,7.03
2019-02-12T13:58:29.129Z,5.70
2019-02-12T14:00:53.555Z,5.67
2019-02-12T14:03:22.539Z,6.03
2019-02-12T14:05:44.108Z,7.93
2019-02-12T14:08:08.555Z,4.90
2019-02-12T14:10:32.958Z,5.47
2019-02-12T14:12:57.410Z,3.43
2019-02-12T14:15:21.800Z,4.87
2019-02-12T14:17:46.230Z,4.10
2019-02-12T14:20:17.428Z,7.67
2019-02-12T14:22:41.925Z,5.93
2019-02-12T14:25:09.067Z,5.20
2019-02-12T14:27:33.491Z,7.40
2019-02-12T14:29:57.896Z,4.67
2019-02-12T14:32:27.013Z,5.20
2019-02-12T14:34:51.545Z,6.13
2019-02-12T14:37:15.981Z,4.63
2019-02-12T14:39:40.383Z,2.70
2019-02-12T14:42:04.895Z,3.70
2019-02-12T14:44:29.303Z,6.47
2019-02-12T14:46:53.741Z,5.47
2019-02-12T14:49:18.152Z,5.67
2019-02-12T14:51:42.557Z,2.93
2019-02-12T14:54:07.395Z,4.57
2019-02-12T14:56:31.868Z,4.27
2019-02-12T14:58:56.297Z,5.93
2019-02-12T15:01:20.704Z,3.80
2019-02-12T15:03:45.207Z,5.37
2019-02-12T15:06:09.622Z,6.00
2019-02-12T15:08:34.083Z,7.07
2019-02-12T15:10:58.494Z,5.17
2019-02-12T15:13:23.046Z,4.90
2019-02-12T15:15:47.455Z,5.27
2019-02-12T15:18:11.939Z,6.37
2019-02-12T15:20:36.336Z,5.67
2019-02-12T15:23:00.766Z,3.70
2019-02-12T15:25:25.173Z,3.30
2019-02-12T15:27:49.561Z,4.93
2019-02-12T15:30:18.078Z,4.40
2019-02-12T15:32:42.545Z,4.70
2019-02-12T15:35:08.823Z,6.23
2019-02-12T15:37:33.221Z,6.27
2019-02-12T15:39:57.638Z,8.23
2019-02-12T15:42:22.034Z,6.30
2019-02-12T15:44:46.535Z,7.93
2019-02-12T15:47:11.020Z,5.63
2019-02-12T15:49:35.438Z,4.03
2019-02-12T15:51:59.838Z,4.13
2019-02-12T15:54:24.340Z,4.53
2019-02-12T15:56:48.730Z,6.07
2019-02-12T15:59:14.410Z,5.30
2019-02-12T16:01:39.249Z,2.80
2019-02-12T16:04:03.894Z,8.20
2019-02-12T16:06:28.336Z,4.37
2019-02-12T16:08:53.973Z,6.33
2019-02-12T16:11:19.517Z,7.53
2019-02-12T16:13:44.951Z,9.43
2019-02-12T16:16:09.939Z,10.93
2019-02-12T16:18:34.374Z,6.37
2019-02-12T16:20:58.799Z,6.90
2019-02-12T16:23:23.202Z,5.60
2019-02-12T16:25:47.636Z,5.43
2019-02-12T16:28:12.046Z,5.33
2019-02-12T16:30:36.534Z,7.17
2019-02-12T16:33:01.013Z,4.73
2019-02-12T16:35:25.444Z,6.77
2019-02-12T16:37:49.838Z,7.30
2019-02-12T16:40:18.626Z,8.17
2019-02-12T16:42:43.165Z,8.43
2019-02-12T16:45:10.623Z,8.27
2019-02-12T16:47:35.077Z,8.30
2019-02-12T16:49:59.722Z,5.90
2019-02-12T16:52:24.181Z,6.53
2019-02-12T16:54:48.584Z,7.27
2019-02-12T16:57:13.086Z,8.07
2019-02-12T16:59:37.475Z,8.57
2019-02-12T17:02:01.912Z,6.63
2019-02-12T17:04:26.328Z,6.70
2019-02-12T17:06:51.136Z,7.20
2019-02-12T17:09:15.605Z,8.33
2019-02-12T17:11:40.032Z,6.13
2019-02-12T17:14:04.588Z,8.33
2019-02-12T17:16:29.044Z,7.03
2019-02-12T17:18:53.447Z,4.97
2019-02-12T17:21:17.871Z,6.13
2019-02-12T17:23:42.412Z,11.33
2019-02-12T17:26:06.822Z,9.60
2019-02-12T17:28:31.336Z,8.10
2019-02-12T17:30:55.739Z,11.03
2019-02-12T17:33:20.182Z,7.60
2019-02-12T17:35:44.586Z,10.77
2019-02-12T17:38:09.011Z,8.50
2019-02-12T17:40:33.415Z,6.37
2019-02-12T17:42:57.855Z,7.00
2019-02-12T17:45:22.410Z,8.47
2019-02-12T17:47:46.859Z,7.60
2019-02-12T17:50:13.243Z,9.90
2019-02-12T17:52:37.756Z,7.77
2019-02-12T17:55:02.240Z,7.93
2019-02-12T17:57:26.754Z,6.83
2019-02-12T17:59:51.171Z,8.03
2019-02-12T18:02:30.976Z,9.03
2019-02-12T18:04:55.393Z,10.70
2019-02-12T18:07:19.838Z,10.00
2019-02-12T18:09:44.272Z,7.83
2019-02-12T18:12:08.719Z,8.87
2019-02-12T18:14:33.151Z,9.13
2019-02-12T18:16:57.574Z,17.27
2019-02-12T18:19:21.995Z,5.40
2019-02-12T18:21:46.467Z,8.53
2019-02-12T18:24:10.908Z,12.70
2019-02-12T18:26:35.354Z,9.67
2019-02-12T18:28:59.806Z,14.00
2019-02-12T18:31:24.212Z,8.33
2019-02-12T18:33:48.652Z,10.73
2019-02-12T18:36:13.064Z,11.83
2019-02-12T18:38:37.544Z,8.00
2019-02-12T18:41:01.973Z,9.60
2019-02-12T18:43:26.419Z,8.97
2019-02-12T18:45:50.904Z,8.70
2019-02-12T18:48:15.367Z,12.50
2019-02-12T18:50:42.777Z,11.67
2019-02-12T18:53:07.278Z,8.83
2019-02-12T18:55:31.756Z,11.43
2019-02-12T18:57:56.229Z,9.17
2019-02-12T19:00:22.102Z,12.03
2019-02-12T19:02:46.581Z,12.33
2019-02-12T19:05:11.426Z,13.43
2019-02-12T19:07:36.070Z,10.50
2019-02-12T19:10:00.595Z,11.27
2019-02-12T19:12:25.100Z,10.70
2019-02-12T19:14:49.482Z,10.20
2019-02-12T19:17:13.904Z,11.93
2019-02-12T19:19:38.353Z,11.47
2019-02-12T19:22:02.828Z,16.13
2019-02-12T19:24:27.328Z,15.33
2019-02-12T19:26:51.732Z,17.07
2019-02-12T19:29:16.171Z,11.27
2019-02-12T19:31:40.575Z,14.57
2019-02-12T19:34:05.080Z,16.83
2019-02-12T19:36:29.491Z,20.07
2019-02-12T19:38:53.894Z,12.60
2019-02-12T19:41:18.353Z,12.83
2019-02-12T19:43:42.853Z,10.93
2019-02-12T19:46:07.290Z,13.03
2019-02-12T19:48:31.704Z,14.37
2019-02-12T19:50:56.163Z,11.87
2019-02-12T19:53:20.603Z,13.43
2019-02-12T19:55:45.055Z,12.77
2019-02-12T19:58:09.455Z,18.73
2019-02-12T20:00:33.965Z,15.27
2019-02-12T20:02:58.387Z,15.50
2019-02-12T20:05:23.075Z,13.43
2019-02-12T20:07:47.515Z,14.67
2019-02-12T20:10:13.261Z,21.43
2019-02-12T20:12:37.703Z,17.90
2019-02-12T20:15:02.105Z,14.97
2019-02-12T20:17:28.122Z,18.33
2019-02-12T20:19:52.557Z,18.23
2019-02-12T20:22:16.995Z,18.10
2019-02-12T20:24:41.393Z,15.57
2019-02-12T20:27:06.853Z,18.13
2019-02-12T20:29:31.420Z,18.43
2019-02-12T20:31:55.860Z,14.80
2019-02-12T20:34:20.497Z,17.80
2019-02-12T20:36:45.085Z,17.50
2019-02-12T20:39:09.508Z,16.30
2019-02-12T20:41:33.941Z,18.33
2019-02-12T20:43:58.349Z,18.10
2019-02-12T20:46:22.895Z,17.63
2019-02-12T20:48:47.358Z,15.33
2019-02-12T20:51:11.769Z,17.37
2019-02-12T20:53:36.282Z,19.67
2019-02-12T20:56:00.700Z,20.97
2019-02-12T20:58:25.212Z,23.33
2019-02-12T21:00:49.711Z,18.53
2019-02-12T21:03:14.167Z,22.00
2019-02-12T21:05:38.671Z,24.20
2019-02-12T21:08:03.095Z,22.57
2019-02-12T21:10:27.551Z,20.37
2019-02-12T21:12:52.064Z,21.23
2019-02-12T21:15:31.857Z,21.33
2019-02-12T21:17:56.273Z,25.50
2019-02-12T21:20:20.787Z,23.17
2019-02-12T21:22:45.284Z,26.03
2019-02-12T21:25:11.381Z,23.17
2019-02-12T21:27:35.790Z,23.70
2019-02-12T21:30:00.294Z,25.80
2019-02-12T21:32:27.761Z,24.20
2019-02-12T21:34:52.192Z,24.00
2019-02-12T21:37:16.619Z,24.70
2019-02-12T21:39:41.037Z,23.07
2019-02-12T21:42:05.469Z,25.10
2019-02-12T21:44:29.877Z,22.13
2019-02-12T21:46:54.314Z,23.97
2019-02-12T21:49:18.807Z,24.20
2019-02-12T21:51:43.239Z,27.93
2019-02-12T21:54:07.663Z,26.47
2019-02-12T21:56:32.091Z,26.27
2019-02-12T21:58:56.523Z,24.67
2019-02-12T22:01:20.966Z,26.30
2019-02-12T22:03:45.378Z,25.53
2019-02-12T22:06:09.830Z,26.53
2019-02-12T22:08:34.237Z,27.43
2019-02-12T22:10:58.684Z,25.37
2019-02-12T22:13:23.095Z,26.20
2019-02-12T22:15:47.521Z,24.57
2019-02-12T22:18:11.956Z,23.13
2019-02-12T22:20:36.363Z,25.37
2019-02-12T22:23:01.922Z,25.13
2019-02-12T22:25:26.480Z,23.70
2019-02-12T22:27:50.986Z,26.77
2019-02-12T22:30:20.572Z,28.30
2019-02-12T22:32:44.974Z,29.83
2019-02-12T22:35:09.467Z,26.63
2019-02-12T22:37:33.873Z,26.73
2019-02-12T22:39:58.317Z,24.97
2019-02-12T22:42:22.735Z,29.17
2019-02-12T22:44:47.243Z,28.30
2019-02-12T22:47:11.671Z,27.67
2019-02-12T22:49:36.100Z,30.13
2019-02-12T22:52:00.541Z,25.60
2019-02-12T22:54:24.998Z,29.43
2019-02-12T22:56:49.409Z,25.77
2019-02-12T22:59:13.966Z,29.00
2019-02-12T23:01:38.560Z,29.23
2019-02-12T23:04:03.034Z,26.87
2019-02-12T23:06:27.474Z,29.63
2019-02-12T23:08:51.902Z,29.50
2019-02-12T23:11:16.346Z,27.97
2019-02-12T23:13:40.787Z,27.63
2019-02-12T23:16:05.360Z,27.17
2019-02-12T23:18:29.838Z,29.67
2019-02-12T23:20:54.270Z,28.53
2019-02-12T23:23:18.686Z,29.43
2019-02-12T23:25:43.125Z,29.27
2019-02-12T23:28:07.539Z,30.47
2019-02-12T23:30:32.033Z,35.37
2019-02-12T23:32:56.506Z,29.93
2019-02-12T23:35:20.920Z,30.60
2019-02-12T23:37:45.437Z,29.10
2019-02-12T23:40:09.926Z,29.07
2019-02-12T23:42:34.358Z,27.93
2019-02-12T23:44:58.768Z,25.43
2019-02-12T23:47:23.205Z,29.93
2019-02-12T23:49:47.615Z,28.63
2019-02-12T23:52:12.056Z,27.23
2019-02-12T23:54:36.452Z,26.73
2019-02-12T23:57:00.892Z,28.67
2019-02-12T23:59:25.300Z,29.83
